Time;durP1;ratioP1;P1;durP2;ratioP2;P2;SDS_P1;SDS_P2;PMS_P1;PMS_P2;Temp;Humidity;BMP_temperature;BMP_pressure;BME280_temperature;BME280_humidity;BME280_pressure;Samples;Min_cycle;Max_cycle;Signal;HPM_P1;HPM_P2
2022/02/05 00:04:03;;;;;;;18.90;18.00;;;6.20;79.10;;;;;;4944519;28;20005;-86
2022/02/05 00:06:34;;;;;;;17.80;17.00;;;6.20;78.90;;;;;;4956921;28;20422;-86
2022/02/05 00:38:49;;;;;;;18.20;17.30;;;5.90;79.10;;;;;;4915589;29;20055;-86
2022/02/05 00:41:20;;;;;;;18.53;17.30;;;5.90;79.00;;;;;;4916047;29;20668;-86
2022/02/05 00:43:58;;;;;;;17.60;16.70;;;6.00;79.10;;;;;;4915321;29;20040;-86
2022/02/05 00:46:27;;;;;;;18.57;17.67;;;6.00;79.10;;;;;;4914589;29;20092;-87
2022/02/05 00:48:53;;;;;;;19.77;17.73;;;5.90;79.00;;;;;;4932129;29;20054;-87
2022/02/05 00:51:44;;;;;;;18.10;17.20;;;5.90;79.10;;;;;;4942299;29;20406;-86
2022/02/05 00:54:15;;;;;;;18.70;17.70;;;5.90;79.00;;;;;;4956039;28;20367;-86
2022/02/05 00:59:14;;;;;;;19.67;18.57;;;5.90;79.00;;;;;;4956324;28;20497;-86
2022/02/05 01:01:41;;;;;;;19.40;18.30;;;5.90;79.00;;;;;;4955106;28;20047;-86
2022/02/05 01:04:07;;;;;;;17.50;16.70;;;5.90;79.10;;;;;;4952274;28;20039;-87
2022/02/05 01:06:33;;;;;;;17.90;16.90;;;5.90;79.00;;;;;;4944756;29;20058;-86
2022/02/05 01:09:02;;;;;;;17.50;16.70;;;5.90;79.00;;;;;;4954729;29;20027;-87
2022/02/05 01:11:28;;;;;;;17.97;17.17;;;5.90;79.10;;;;;;4955265;29;20431;-87
2022/02/05 01:13:57;;;;;;;17.20;16.40;;;5.90;79.10;;;;;;4954748;29;20099;-87
2022/02/05 01:16:44;;;;;;;17.80;17.00;;;5.90;79.10;;;;;;4952455;28;20040;-87
2022/02/05 01:19:20;;;;;;;18.80;17.63;;;5.80;79.10;;;;;;4947942;29;20053;-87
2022/02/05 01:21:52;;;;;;;18.43;17.53;;;5.80;79.10;;;;;;4968246;28;20054;-87
2022/02/05 01:24:20;;;;;;;17.20;16.40;;;5.80;79.20;;;;;;4947685;29;20410;-87
2022/02/05 01:26:53;;;;;;;18.20;17.30;;;5.80;79.20;;;;;;4955475;29;20031;-86
2022/02/05 01:31:55;;;;;;;18.73;17.83;;;5.80;79.20;;;;;;4953901;28;20039;-86
2022/02/05 01:34:48;;;;;;;17.88;16.88;;;5.70;79.10;;;;;;4955157;29;20032;-86
2022/02/05 02:12:00;;;;;;;17.73;16.83;;;5.50;79.20;;;;;;4909923;29;20039;-86
2022/02/05 02:22:30;;;;;;;18.00;17.20;;;5.40;79.40;;;;;;4909739;29;20055;-86
2022/02/05 02:27:37;;;;;;;17.77;16.87;;;5.40;79.30;;;;;;4900390;29;20567;-86
2022/02/05 02:30:15;;;;;;;17.90;17.00;;;5.40;79.40;;;;;;4894528;29;20045;-86
2022/02/05 02:32:46;;;;;;;17.73;16.63;;;5.40;79.40;;;;;;4909769;29;20515;-86
2022/02/05 02:35:23;;;;;;;17.60;16.80;;;5.40;79.40;;;;;;4916233;29;20379;-86
2022/02/05 02:37:54;;;;;;;17.93;17.13;;;5.30;79.40;;;;;;4948582;28;20495;-86
2022/02/05 02:40:47;;;;;;;17.40;16.52;;;5.30;79.40;;;;;;4948016;29;20063;-87
2022/02/05 02:43:17;;;;;;;17.33;16.53;;;5.30;79.40;;;;;;4953154;28;20035;-86
2022/02/05 02:45:45;;;;;;;17.33;16.53;;;5.30;79.40;;;;;;4952125;28;20050;-86
2022/02/05 02:48:12;;;;;;;17.20;16.40;;;5.30;79.40;;;;;;4938361;29;20031;-86
2022/02/05 02:58:55;;;;;;;19.80;18.40;;;5.20;79.50;;;;;;4957881;28;20042;-87
2022/02/05 03:01:21;;;;;;;16.90;16.10;;;5.20;79.50;;;;;;4947222;28;20073;-86
2022/02/05 03:03:47;;;;;;;17.40;16.50;;;5.20;80.20;;;;;;4947016;29;20505;-86
2022/02/05 03:06:13;;;;;;;18.07;17.17;;;5.20;80.20;;;;;;4948001;29;20058;-87
2022/02/05 03:08:40;;;;;;;16.83;16.03;;;5.10;79.50;;;;;;4943717;29;20034;-87
2022/02/05 03:11:06;;;;;;;18.03;17.13;;;5.10;79.50;;;;;;4945869;29;20062;-87
2022/02/05 03:13:32;;;;;;;17.67;16.87;;;5.10;79.50;;;;;;4948720;29;20050;-86
2022/02/05 03:15:58;;;;;;;17.90;17.10;;;5.10;80.20;;;;;;4949583;28;20038;-86
2022/02/05 03:18:45;;;;;;;17.30;16.50;;;5.10;79.50;;;;;;4951127;29;20418;-86
2022/02/05 03:21:11;;;;;;;17.53;16.73;;;5.10;79.60;;;;;;4938485;29;20062;-87
2022/02/05 03:23:37;;;;;;;17.33;16.43;;;5.00;79.60;;;;;;4948361;29;20042;-87
2022/02/05 03:26:03;;;;;;;17.37;16.57;;;5.00;79.50;;;;;;4948336;29;20020;-87
2022/02/05 03:28:32;;;;;;;17.40;16.60;;;5.00;79.50;;;;;;4948889;29;20347;-87
2022/02/05 03:30:58;;;;;;;18.33;17.47;;;5.00;79.60;;;;;;4947213;28;20035;-87
2022/02/05 03:33:24;;;;;;;18.67;17.70;;;5.00;79.60;;;;;;4937191;29;20031;-87
2022/02/05 03:35:50;;;;;;;17.70;16.90;;;4.90;79.60;;;;;;4948394;28;20050;-87
2022/02/05 03:38:17;;;;;;;18.13;17.33;;;4.90;79.70;;;;;;4949908;29;20483;-86
2022/02/05 03:40:43;;;;;;;18.00;17.10;;;4.90;79.70;;;;;;4952745;29;20050;-86
2022/02/05 03:43:09;;;;;;;17.80;17.00;;;4.90;79.70;;;;;;4949093;29;20040;-86
2022/02/05 03:45:35;;;;;;;17.60;16.80;;;4.90;79.70;;;;;;4940856;28;20046;-86
2022/02/05 03:48:01;;;;;;;17.53;16.73;;;4.90;79.70;;;;;;4951716;29;20047;-86
2022/02/05 03:50:29;;;;;;;20.80;19.10;;;4.90;79.60;;;;;;4951411;29;20497;-86
2022/02/05 03:52:55;;;;;;;20.57;19.37;;;4.90;79.60;;;;;;4951225;29;20047;-86
2022/02/05 03:55:21;;;;;;;19.20;18.23;;;4.90;79.60;;;;;;4953091;29;20027;-87
2022/02/05 03:57:47;;;;;;;18.40;17.47;;;4.90;79.60;;;;;;4949544;28;20051;-87
2022/02/05 04:00:14;;;;;;;18.00;17.10;;;4.80;79.60;;;;;;4952334;28;20039;-87
2022/02/05 04:02:40;;;;;;;17.60;16.73;;;4.80;79.60;;;;;;4953372;28;20031;-87
2022/02/05 04:05:06;;;;;;;17.67;16.87;;;4.80;79.60;;;;;;4949652;29;20044;-86
2022/02/05 04:07:37;;;;;;;17.10;16.30;;;4.80;79.60;;;;;;4953015;29;20036;-87
2022/02/05 04:10:06;;;;;;;18.88;17.63;;;4.80;79.60;;;;;;4952449;29;20042;-86
2022/02/05 04:18:02;;;;;;;17.13;16.33;;;4.70;79.50;;;;;;4958173;28;20054;-86
2022/02/05 04:20:28;;;;;;;17.70;16.90;;;4.70;79.60;;;;;;4951771;29;20094;-86
2022/02/05 04:22:55;;;;;;;17.70;16.87;;;4.70;79.60;;;;;;4952413;29;20031;-86
2022/02/05 04:25:21;;;;;;;17.37;16.57;;;4.70;79.60;;;;;;4948453;29;20040;-86
2022/02/05 04:27:47;;;;;;;19.23;18.03;;;4.70;79.60;;;;;;4938167;29;20035;-87
2022/02/05 04:30:13;;;;;;;16.37;15.57;;;4.70;79.60;;;;;;4949998;28;20031;-86
2022/02/05 04:32:39;;;;;;;18.37;16.40;;;4.70;79.70;;;;;;4953296;29;20031;-85
2022/02/05 04:35:05;;;;;;;16.23;15.43;;;4.70;79.70;;;;;;4948459;29;20137;-86
2022/02/05 04:37:32;;;;;;;16.17;15.37;;;4.70;79.70;;;;;;4948360;28;20032;-87
2022/02/05 04:42:39;;;;;;;16.07;15.27;;;4.70;79.70;;;;;;4953013;29;20509;-88
2022/02/05 04:59:49;;;;;;;16.80;16.00;;;4.50;79.60;;;;;;4953111;28;20058;-90
2022/02/05 05:04:04;;;;;;;17.77;16.87;;;4.50;79.70;;;;;;4947151;28;20035;-87
2022/02/05 05:12:02;;;;;;;16.92;15.93;;;4.50;79.80;;;;;;4939621;29;20054;-88
2022/02/05 05:19:57;;;;;;;16.37;15.57;;;4.40;79.70;;;;;;4948908;28;20038;-88
2022/02/05 05:22:23;;;;;;;15.70;15.00;;;4.40;79.70;;;;;;4926135;29;20069;-86
2022/02/05 05:24:50;;;;;;;15.73;15.03;;;4.40;79.80;;;;;;4931503;29;20486;-86
2022/02/05 05:27:16;;;;;;;16.53;15.73;;;4.40;79.70;;;;;;4952468;29;20047;-85
2022/02/05 05:29:42;;;;;;;16.83;16.03;;;4.40;79.70;;;;;;4955343;29;20482;-86
2022/02/05 05:32:08;;;;;;;16.47;15.67;;;4.40;79.70;;;;;;4965253;28;20135;-87
2022/02/05 05:34:34;;;;;;;16.83;16.03;;;4.40;79.70;;;;;;4949973;29;20027;-86
2022/02/05 05:37:01;;;;;;;16.67;15.87;;;4.40;79.70;;;;;;4952311;28;20490;-87
2022/02/05 05:39:32;;;;;;;16.23;15.47;;;4.40;79.70;;;;;;4960026;28;20051;-88
2022/02/05 05:41:58;;;;;;;17.58;16.65;;;4.40;79.70;;;;;;4969215;28;20038;-89
2022/02/05 05:52:34;;;;;;;15.97;15.27;;;4.40;79.70;;;;;;4900301;29;20052;-91
2022/02/05 05:55:00;;;;;;;16.80;16.00;;;4.40;79.70;;;;;;4900084;29;20479;-90
2022/02/05 05:57:26;;;;;;;16.07;15.37;;;4.40;79.60;;;;;;4894936;29;20045;-87
2022/02/05 05:59:52;;;;;;;16.37;15.57;;;4.40;79.70;;;;;;4895252;29;20037;-86
2022/02/05 06:02:18;;;;;;;16.00;15.27;;;4.30;79.60;;;;;;4893310;29;20380;-87
2022/02/05 06:04:44;;;;;;;15.77;15.07;;;4.30;79.70;;;;;;4897274;29;20488;-90
2022/02/05 06:07:11;;;;;;;17.33;16.43;;;4.30;79.70;;;;;;4904619;29;20049;-89
2022/02/05 06:09:41;;;;;;;15.93;15.23;;;4.30;79.70;;;;;;4898039;29;20266;-88
2022/02/05 06:12:09;;;;;;;15.95;15.25;;;4.30;79.80;;;;;;4900886;29;20061;-88
2022/02/05 06:14:35;;;;;;;16.53;15.77;;;4.30;79.80;;;;;;4895899;29;20060;-88
2022/02/05 06:17:08;;;;;;;16.53;15.73;;;4.30;79.90;;;;;;4895809;29;20044;-88
2022/02/05 06:19:35;;;;;;;16.43;15.70;;;4.30;80.00;;;;;;4894017;29;20055;-87
2022/02/05 06:22:02;;;;;;;16.90;16.07;;;4.40;80.00;;;;;;4894438;29;20052;-88
2022/02/05 06:24:28;;;;;;;17.47;16.47;;;4.50;79.60;;;;;;4894505;29;20484;-88
2022/02/05 06:26:54;;;;;;;17.00;16.20;;;4.60;79.40;;;;;;4895006;29;20056;-88
2022/02/05 06:29:20;;;;;;;16.87;16.07;;;4.50;79.40;;;;;;4917857;29;20043;-87
2022/02/05 06:31:46;;;;;;;17.27;16.27;;;4.50;79.40;;;;;;4952326;28;20039;-88
2022/02/05 06:34:13;;;;;;;17.17;16.27;;;4.40;79.50;;;;;;4952109;29;20042;-88
2022/02/05 06:36:39;;;;;;;18.13;17.10;;;4.40;79.60;;;;;;4953894;28;20058;-89
2022/02/05 06:39:05;;;;;;;16.53;15.77;;;4.40;79.70;;;;;;4954165;29;20047;-87
2022/02/05 06:41:31;;;;;;;16.30;15.57;;;4.30;79.70;;;;;;4938535;29;20070;-87
2022/02/05 06:43:57;;;;;;;15.87;15.07;;;4.30;79.80;;;;;;4952823;29;20042;-88
2022/02/05 06:46:23;;;;;;;16.20;15.50;;;4.30;79.90;;;;;;4949770;28;20039;-89
2022/02/05 06:48:49;;;;;;;15.97;15.07;;;4.20;79.80;;;;;;4952761;29;20035;-87
2022/02/05 06:51:15;;;;;;;16.57;15.77;;;4.20;79.90;;;;;;4953980;29;20065;-88
2022/02/05 06:53:41;;;;;;;15.93;15.13;;;4.20;79.90;;;;;;4954589;29;20038;-88
2022/02/05 06:56:07;;;;;;;16.57;15.77;;;4.20;79.80;;;;;;4954020;29;20031;-88
2022/02/05 06:58:33;;;;;;;15.70;15.00;;;4.20;79.90;;;;;;4954051;29;20043;-89
2022/02/05 07:00:59;;;;;;;17.53;16.70;;;4.20;79.90;;;;;;4951651;28;20039;-89
2022/02/05 07:03:25;;;;;;;17.77;16.87;;;4.10;79.90;;;;;;4938564;29;20039;-87
2022/02/05 07:05:52;;;;;;;16.80;15.80;;;4.10;79.90;;;;;;4949378;29;20031;-89
2022/02/05 07:08:18;;;;;;;16.50;15.60;;;4.10;79.90;;;;;;4953997;28;20031;-89
2022/02/05 07:10:44;;;;;;;16.83;15.93;;;4.10;79.90;;;;;;4948971;29;20046;-87
2022/02/05 07:13:13;;;;;;;17.97;17.10;;;4.10;79.90;;;;;;4948379;29;20043;-86
2022/02/05 07:15:47;;;;;;;19.03;17.83;;;4.10;79.90;;;;;;4941024;28;20039;-85
2022/02/05 07:18:23;;;;;;;17.77;16.87;;;4.10;79.90;;;;;;4936641;29;20046;-84
2022/02/05 07:20:54;;;;;;;16.53;15.73;;;4.10;79.90;;;;;;4951485;28;20495;-88
2022/02/05 07:31:19;;;;;;;16.90;15.97;;;4.10;79.80;;;;;;4951928;28;20505;-86
2022/02/05 07:33:46;;;;;;;16.70;15.90;;;4.10;79.80;;;;;;4952254;29;20380;-86
2022/02/05 07:36:13;;;;;;;16.90;16.00;;;4.10;79.80;;;;;;4951757;28;20031;-86
2022/02/05 07:38:39;;;;;;;17.07;16.27;;;4.10;79.80;;;;;;4952956;29;20027;-86
2022/02/05 07:41:05;;;;;;;16.97;16.17;;;4.10;79.80;;;;;;4949880;28;20059;-85
2022/02/05 07:43:35;;;;;;;17.17;16.27;;;4.10;79.80;;;;;;4953651;28;20429;-84
2022/02/05 07:46:05;;;;;;;16.47;15.67;;;4.10;79.80;;;;;;4963874;28;20043;-84
2022/02/05 07:48:31;;;;;;;17.27;16.27;;;4.10;79.80;;;;;;4951114;29;20050;-87
2022/02/05 07:51:00;;;;;;;16.93;16.10;;;4.10;79.80;;;;;;4951093;29;20506;-87
2022/02/05 07:53:29;;;;;;;16.00;15.30;;;4.10;79.80;;;;;;4952022;29;20031;-88
2022/02/05 07:55:56;;;;;;;17.30;16.40;;;4.20;79.80;;;;;;4951904;29;20051;-87
2022/02/05 07:58:22;;;;;;;17.03;16.23;;;4.20;79.60;;;;;;4949452;29;20500;-88
2022/02/05 08:00:48;;;;;;;17.23;16.33;;;4.30;79.60;;;;;;4949845;28;20043;-85
2022/02/05 08:03:15;;;;;;;15.43;14.73;;;4.30;79.60;;;;;;4951705;29;20051;-85
2022/02/05 08:05:41;;;;;;;17.13;16.23;;;4.30;79.50;;;;;;4953737;28;20047;-86
2022/02/05 08:08:12;;;;;;;17.00;16.00;;;4.40;79.50;;;;;;4950441;29;20521;-84
2022/02/05 08:10:47;;;;;;;17.20;16.08;;;4.40;79.50;;;;;;4950421;28;20051;-85
2022/02/05 08:13:13;;;;;;;17.90;16.90;;;4.50;79.50;;;;;;4951870;28;20054;-85
2022/02/05 08:15:39;;;;;;;16.57;15.77;;;4.50;79.40;;;;;;4949587;28;20032;-86
2022/02/05 08:18:06;;;;;;;15.93;15.23;;;4.50;79.40;;;;;;4951383;29;20035;-83
2022/02/05 08:20:32;;;;;;;16.10;15.40;;;4.60;79.40;;;;;;4970575;28;20027;-85
2022/02/05 08:22:58;;;;;;;17.03;16.23;;;4.60;79.40;;;;;;4952064;29;20043;-87
2022/02/05 08:25:24;;;;;;;17.43;16.40;;;4.60;79.30;;;;;;4950822;28;20046;-83
2022/02/05 08:27:51;;;;;;;16.20;15.50;;;4.70;79.30;;;;;;4953176;29;20500;-82
2022/02/05 08:30:17;;;;;;;17.17;16.27;;;4.80;79.20;;;;;;4952832;28;20036;-83
2022/02/05 08:32:44;;;;;;;15.67;14.97;;;4.80;79.20;;;;;;4956137;29;20390;-84
2022/02/05 08:35:11;;;;;;;16.70;15.53;;;4.80;79.10;;;;;;4954376;29;20047;-84
2022/02/05 08:37:39;;;;;;;16.20;15.30;;;4.90;79.20;;;;;;4953485;28;20055;-84
2022/02/05 08:40:06;;;;;;;17.60;16.07;;;4.90;79.10;;;;;;4951719;29;20438;-84
2022/02/05 08:42:32;;;;;;;16.40;15.60;;;4.90;79.10;;;;;;4953059;29;20043;-83
2022/02/05 08:44:58;;;;;;;16.53;15.73;;;5.00;79.20;;;;;;4955169;29;20027;-82
2022/02/05 08:47:24;;;;;;;16.60;15.77;;;5.00;79.10;;;;;;4967338;28;20035;-86
2022/02/05 08:49:55;;;;;;;16.33;15.53;;;5.10;79.10;;;;;;4953080;29;20423;-83
2022/02/05 08:52:22;;;;;;;17.25;16.38;;;5.20;79.10;;;;;;4967236;28;20054;-83
2022/02/05 08:54:48;;;;;;;17.47;16.47;;;5.20;78.90;;;;;;4952878;29;20035;-82
2022/02/05 08:57:14;;;;;;;17.27;16.30;;;5.30;79.00;;;;;;4968774;28;20050;-82
2022/02/05 09:00:09;;;;;;;18.67;17.47;;;5.40;78.90;;;;;;4955925;29;20023;-83
2022/02/05 09:02:36;;;;;;;18.90;17.90;;;5.50;78.90;;;;;;4950657;28;20793;-84
2022/02/05 09:05:17;;;;;;;17.03;16.23;;;5.90;78.80;;;;;;4953533;29;20467;-84
2022/02/05 09:07:44;;;;;;;16.80;16.00;;;6.50;77.70;;;;;;4952342;29;20043;-85
2022/02/05 09:10:26;;;;;;;18.10;17.10;;;7.10;76.10;;;;;;4953864;29;20034;-86
2022/02/05 09:13:24;;;;;;;17.10;16.20;;;7.70;75.00;;;;;;4944278;29;20032;-85
2022/02/05 09:15:41;;;;;;;17.47;16.67;;;8.20;73.90;;;;;;4947119;28;20035;-86
2022/02/05 09:18:07;;;;;;;17.40;16.60;;;8.60;73.00;;;;;;4948312;29;20038;-85
2022/02/05 09:20:33;;;;;;;19.40;18.50;;;9.00;72.50;;;;;;4951754;28;20035;-86
2022/02/05 09:23:01;;;;;;;19.30;17.88;;;9.30;72.20;;;;;;4960805;28;20042;-88
2022/02/05 09:25:29;;;;;;;19.20;18.30;;;9.50;72.00;;;;;;4943031;28;20042;-84
2022/02/05 09:27:55;;;;;;;18.95;18.05;;;9.50;72.00;;;;;;4949661;28;20047;-86
2022/02/05 09:30:30;;;;;;;21.55;20.55;;;9.70;72.10;;;;;;4965108;28;20027;-87
2022/02/05 09:32:56;;;;;;;19.98;19.02;;;9.80;72.40;;;;;;4952682;29;20039;-87
2022/02/05 09:35:23;;;;;;;1999.90;999.90;;;10.00;72.40;;;;;;4955568;29;20382;-88
2022/02/05 09:37:49;;;;;;;1999.90;999.90;;;10.10;72.30;;;;;;4950879;28;20043;-85
2022/02/05 09:40:15;;;;;;;1999.90;999.90;;;10.30;72.20;;;;;;4949890;28;20474;-87
2022/02/05 09:42:45;;;;;;;1999.90;999.90;;;10.40;72.10;;;;;;4940445;29;20047;-85
2022/02/05 09:45:11;;;;;;;1999.90;999.90;;;10.60;72.10;;;;;;4946692;28;20031;-89
2022/02/05 09:47:38;;;;;;;1999.90;999.90;;;10.70;72.10;;;;;;4944376;29;20441;-83
2022/02/05 09:50:04;;;;;;;1999.90;999.90;;;10.90;71.90;;;;;;4951694;29;20031;-83
2022/02/05 09:52:30;;;;;;;1999.90;999.90;;;11.10;71.60;;;;;;4952904;28;20066;-85
2022/02/05 09:54:56;;;;;;;1999.90;999.90;;;11.30;71.40;;;;;;4950541;29;20032;-84
2022/02/05 09:57:23;;;;;;;1999.90;999.90;;;11.40;71.30;;;;;;4953074;29;20039;-83
2022/02/05 09:59:57;;;;;;;1999.90;999.90;;;11.40;71.40;;;;;;4961140;28;20028;-83
2022/02/05 10:02:26;;;;;;;1999.90;999.90;;;11.40;71.60;;;;;;4943358;28;20056;-83
2022/02/05 10:05:10;;;;;;;1999.90;999.90;;;11.40;71.70;;;;;;4951183;29;20027;-84
2022/02/05 10:07:51;;;;;;;1999.90;999.90;;;11.50;71.80;;;;;;4951045;28;20050;-83
2022/02/05 10:10:17;;;;;;;1999.90;999.90;;;11.50;71.90;;;;;;4950529;29;20040;-83
2022/02/05 10:12:43;;;;;;;1999.90;999.90;;;11.60;71.90;;;;;;4960243;28;20024;-85
2022/02/05 10:15:10;;;;;;;1999.90;999.90;;;11.70;71.80;;;;;;4945281;28;20039;-87
2022/02/05 10:17:41;;;;;;;1999.90;999.90;;;11.80;71.80;;;;;;4954945;28;20059;-85
2022/02/05 10:20:08;;;;;;;1999.90;999.90;;;11.90;71.70;;;;;;4949998;28;20031;-85
2022/02/05 10:22:38;;;;;;;1999.90;999.90;;;11.70;72.60;;;;;;4949128;29;20047;-85
2022/02/05 10:25:19;;;;;;;1999.90;999.90;;;11.50;72.30;;;;;;4967412;28;20027;-88
2022/02/05 10:27:46;;;;;;;1999.90;999.90;;;11.40;72.90;;;;;;4953186;29;20510;-82
2022/02/05 10:30:12;;;;;;;1999.90;999.90;;;11.50;73.10;;;;;;4952313;28;20040;-82
2022/02/05 10:32:44;;;;;;;1999.90;999.90;;;11.50;73.10;;;;;;4950719;29;20043;-82
2022/02/05 10:35:34;;;;;;;1999.90;999.90;;;11.50;73.10;;;;;;4953033;29;20038;-83
2022/02/05 10:40:45;;;;;;;1999.90;999.90;;;11.50;73.30;;;;;;4951992;28;20505;-81
2022/02/05 10:43:12;;;;;;;1999.90;999.90;;;11.50;73.40;;;;;;4943062;29;20035;-83
2022/02/05 10:45:41;;;;;;;1999.90;999.90;;;11.50;73.70;;;;;;4937861;28;20043;-83
2022/02/05 10:48:08;;;;;;;1999.90;999.90;;;11.50;73.70;;;;;;4941164;29;20043;-82
2022/02/05 10:50:34;;;;;;;1999.90;999.90;;;11.60;73.70;;;;;;4968402;28;20047;-81
2022/02/05 10:53:16;;;;;;;1999.90;999.90;;;11.70;73.50;;;;;;4949595;29;20042;-81
2022/02/05 11:07:26;;;;;;;1999.90;999.90;;;11.80;73.60;;;;;;4951995;28;20043;-87
2022/02/05 11:09:53;;;;;;;1999.90;999.90;;;11.80;73.80;;;;;;4949598;28;20039;-83
2022/02/05 11:20:21;;;;;;;1999.90;999.90;;;12.00;73.60;;;;;;4956715;28;20031;-82
2022/02/05 11:22:51;;;;;;;1999.90;999.90;;;12.10;73.70;;;;;;4961170;28;20062;-81
2022/02/05 11:25:18;;;;;;;1999.90;999.90;;;12.20;73.60;;;;;;4944361;29;20039;-82
2022/02/05 11:27:45;;;;;;;1999.90;999.90;;;12.30;73.50;;;;;;4951812;29;20039;-84
2022/02/05 11:30:27;;;;;;;1999.90;999.90;;;12.60;73.10;;;;;;4937220;28;20042;-82
2022/02/05 11:33:01;;;;;;;1999.90;999.90;;;12.80;72.50;;;;;;4950590;28;20039;-81
2022/02/05 11:35:43;;;;;;;1999.90;999.90;;;13.00;72.10;;;;;;4966315;28;20482;-80
2022/02/05 11:38:09;;;;;;;1999.90;999.90;;;13.20;71.80;;;;;;4951404;29;20035;-81
2022/02/05 11:40:41;;;;;;;1999.90;999.90;;;13.40;71.30;;;;;;4961320;28;20036;-80
2022/02/05 11:43:19;;;;;;;1999.90;999.90;;;13.50;71.00;;;;;;4952005;29;20058;-82
2022/02/05 11:46:04;;;;;;;1999.90;999.90;;;13.70;70.60;;;;;;4941723;28;20034;-83
2022/02/05 11:48:52;;;;;;;1999.90;999.90;;;13.90;70.40;;;;;;4963969;28;20498;-92
2022/02/05 11:51:21;;;;;;;1999.90;999.90;;;14.00;70.10;;;;;;4947626;29;20043;-90
2022/02/05 11:53:59;;;;;;;1999.90;999.90;;;14.00;70.20;;;;;;4950764;29;20035;-84
2022/02/05 11:56:50;;;;;;;1999.90;999.90;;;13.90;70.40;;;;;;4950785;29;20047;-82
2022/02/05 11:59:34;;;;;;;1999.90;999.90;;;13.90;70.60;;;;;;4952727;28;20032;-82
2022/02/05 12:02:13;;;;;;;1999.90;999.90;;;14.00;70.50;;;;;;4954532;28;20414;-82
2022/02/05 12:04:39;;;;;;;1999.90;999.90;;;14.10;70.50;;;;;;4956985;29;20520;-83
2022/02/05 12:07:07;;;;;;;1999.90;999.90;;;14.20;70.30;;;;;;4955147;29;20054;-82
2022/02/05 12:09:40;;;;;;;1999.90;999.90;;;14.30;70.10;;;;;;4971387;28;20043;-82
2022/02/05 12:12:25;;;;;;;1999.90;999.90;;;14.40;69.90;;;;;;4955125;29;20043;-83
2022/02/05 12:15:22;;;;;;;1999.90;999.90;;;14.60;69.80;;;;;;4956112;29;20042;-83
2022/02/05 12:18:06;;;;;;;1999.90;999.90;;;14.70;69.40;;;;;;4939285;29;20454;-85
2022/02/05 12:20:57;;;;;;;1999.90;999.90;;;14.90;69.10;;;;;;4956241;29;20074;-85
2022/02/05 12:26:29;;;;;;;1999.90;999.90;;;15.10;68.90;;;;;;4936316;29;20047;-85
2022/02/05 12:29:02;;;;;;;1999.90;999.90;;;15.10;68.80;;;;;;4940771;29;20048;-84
2022/02/05 12:31:30;;;;;;;1999.90;999.90;;;15.10;68.80;;;;;;4945507;28;20031;-85
2022/02/05 12:34:09;;;;;;;1999.90;999.90;;;15.20;68.70;;;;;;4953360;29;20039;-86
2022/02/05 12:36:38;;;;;;;1999.90;999.90;;;15.20;68.70;;;;;;4934620;29;20031;-83
2022/02/05 12:39:11;;;;;;;1999.90;999.90;;;15.20;68.50;;;;;;4929661;29;20042;-82
2022/02/05 12:41:38;;;;;;;1999.90;999.90;;;15.30;68.60;;;;;;4944493;29;20046;-81
2022/02/05 12:44:07;;;;;;;1999.90;999.90;;;15.30;68.60;;;;;;4950017;29;20055;-83
2022/02/05 12:46:39;;;;;;;1999.90;999.90;;;15.40;68.50;;;;;;4945790;28;20111;-82
2022/02/05 12:49:13;;;;;;;1999.90;999.90;;;15.30;68.50;;;;;;4927659;29;20043;-81
2022/02/05 12:51:41;;;;;;;1999.90;999.90;;;15.20;68.70;;;;;;4944909;29;20040;-83
2022/02/05 12:54:10;;;;;;;1999.90;999.90;;;15.10;69.20;;;;;;4951729;29;20430;-83
2022/02/05 12:56:38;;;;;;;1999.90;999.90;;;15.00;69.30;;;;;;4953519;29;20039;-82
2022/02/05 12:59:10;;;;;;;1999.90;999.90;;;15.10;69.50;;;;;;4952296;29;20080;-82
2022/02/05 13:01:36;;;;;;;;;;;15.10;69.30;;;;;;4950836;28;20031;-83
2022/02/05 13:04:16;;;;;;;1999.90;999.90;;;15.00;69.20;;;;;;4949222;29;19918;-82
2022/02/05 13:06:43;;;;;;;1999.90;999.90;;;15.00;69.20;;;;;;4968502;28;20035;-82
2022/02/05 13:09:22;;;;;;;1999.90;999.90;;;15.00;69.30;;;;;;4955669;28;20047;-82
2022/02/05 13:11:59;;;;;;;1999.90;999.90;;;14.90;69.40;;;;;;4951280;28;20382;-82
2022/02/05 13:14:35;;;;;;;1999.90;999.90;;;14.80;69.50;;;;;;4954113;29;20027;-82
2022/02/05 13:17:01;;;;;;;1999.90;999.90;;;14.90;69.60;;;;;;4968906;28;20509;-82
2022/02/05 13:19:42;;;;;;;1999.90;999.90;;;15.00;69.30;;;;;;4955006;29;20279;-82
2022/02/05 13:37:01;;;;;;;1999.90;999.90;;;14.70;69.40;;;;;;4931603;29;20035;-82
2022/02/05 13:41:58;;;;;;;1999.90;999.90;;;14.70;69.20;;;;;;4932738;29;20031;-82
2022/02/05 13:44:29;;;;;;;1999.90;999.90;;;14.80;69.10;;;;;;4932985;29;20063;-82
2022/02/05 13:47:05;;;;;;;1999.90;999.90;;;14.90;68.80;;;;;;4932113;29;20046;-82
2022/02/05 13:49:32;;;;;;;1999.90;999.90;;;14.90;68.60;;;;;;4932629;29;20502;-82
2022/02/05 13:52:13;;;;;;;1999.90;999.90;;;15.00;68.40;;;;;;4932601;29;20039;-81
2022/02/05 13:54:41;;;;;;;1999.90;999.90;;;14.90;68.20;;;;;;4933438;29;20032;-81
2022/02/05 13:57:09;;;;;;;1999.90;999.90;;;14.80;68.40;;;;;;4917174;29;20055;-82
2022/02/05 13:59:35;;;;;;;1999.90;999.90;;;14.60;68.70;;;;;;4918820;29;20044;-81
2022/02/05 14:02:15;;;;;;;1999.90;999.90;;;14.50;68.90;;;;;;4931601;28;20039;-81
2022/02/05 14:04:41;;;;;;;1999.90;999.90;;;14.30;69.30;;;;;;4942086;29;20039;-82
2022/02/05 14:07:07;;;;;;;1999.90;999.90;;;14.20;69.50;;;;;;4953484;28;20051;-82
2022/02/05 14:09:34;;;;;;;1999.90;999.90;;;14.20;69.50;;;;;;4954576;29;20387;-88
2022/02/05 14:12:20;;;;;;;1999.90;999.90;;;14.20;69.40;;;;;;4952666;29;20043;-87
2022/02/05 14:15:02;;;;;;;1999.90;999.90;;;14.20;69.20;;;;;;4953163;28;20398;-81
2022/02/05 14:17:28;;;;;;;1999.90;999.90;;;14.20;68.90;;;;;;4949352;28;20035;-81
2022/02/05 14:20:08;;;;;;;1999.90;999.90;;;14.10;69.00;;;;;;4957591;28;20039;-81
2022/02/05 14:22:37;;;;;;;1999.90;999.90;;;14.10;69.00;;;;;;4947195;28;20058;-81
2022/02/05 14:25:34;;;;;;;1999.90;999.90;;;14.20;68.90;;;;;;4952389;29;20027;-81
2022/02/05 14:28:17;;;;;;;1999.90;999.90;;;14.20;68.80;;;;;;4953809;29;20486;-81
2022/02/05 14:31:01;;;;;;;1999.90;999.90;;;14.30;68.60;;;;;;4946492;28;20028;-82
2022/02/05 14:33:36;;;;;;;1999.90;999.90;;;14.30;68.40;;;;;;4965851;28;20031;-81
2022/02/05 14:36:22;;;;;;;1999.90;999.90;;;14.30;68.40;;;;;;4941486;28;20047;-81
2022/02/05 14:41:33;;;;;;;1999.90;999.90;;;14.30;68.20;;;;;;4955671;28;20047;-81
2022/02/05 14:43:59;;;;;;;1999.90;999.90;;;14.30;68.00;;;;;;4953605;29;20038;-82
2022/02/05 14:46:25;;;;;;;1999.90;999.90;;;14.40;68.00;;;;;;4965066;28;20034;-81
2022/02/05 14:48:51;;;;;;;1999.90;999.90;;;14.30;67.80;;;;;;4944854;29;20035;-82
2022/02/05 14:51:17;;;;;;;1999.90;999.90;;;14.40;67.70;;;;;;4963053;28;20051;-88
2022/02/05 14:53:43;;;;;;;1999.90;999.90;;;14.40;67.60;;;;;;4953924;29;20034;-88
2022/02/05 14:56:10;;;;;;;1999.90;999.90;;;14.40;68.30;;;;;;4953690;29;20031;-87
2022/02/05 14:58:36;;;;;;;1999.90;999.90;;;14.30;67.60;;;;;;4953200;29;20031;-87
2022/02/05 15:01:05;;;;;;;1999.90;999.90;;;14.30;67.60;;;;;;4952247;28;20031;-88
2022/02/05 15:03:34;;;;;;;1999.90;999.90;;;14.30;67.60;;;;;;4952307;29;20043;-87
2022/02/05 15:06:06;;;;;;;1999.90;999.90;;;14.30;67.50;;;;;;4952749;28;20035;-87
2022/02/05 15:08:32;;;;;;;1999.90;999.90;;;14.20;67.50;;;;;;4953868;29;20034;-87
2022/02/05 15:10:59;;;;;;;1999.90;999.90;;;14.10;67.70;;;;;;4952997;29;20030;-87
2022/02/05 15:13:25;;;;;;;1999.90;999.90;;;14.00;67.80;;;;;;4951141;29;20040;-86
2022/02/05 15:15:53;;;;;;;1999.90;999.90;;;13.90;67.90;;;;;;4952377;28;20038;-87
2022/02/05 15:18:19;;;;;;;1999.90;999.90;;;13.80;68.10;;;;;;4953314;29;20039;-87
2022/02/05 15:20:45;;;;;;;1999.90;999.90;;;13.70;68.20;;;;;;4953832;29;20035;-87
2022/02/05 15:23:13;;;;;;;1999.90;999.90;;;13.70;68.20;;;;;;4952668;29;20050;-88
2022/02/05 15:25:39;;;;;;;1999.90;999.90;;;13.70;68.30;;;;;;4952945;29;20522;-88
2022/02/05 15:28:05;;;;;;;1999.90;999.90;;;13.60;68.20;;;;;;4952746;29;20043;-88
2022/02/05 15:30:31;;;;;;;1999.90;999.90;;;13.60;68.20;;;;;;4951244;28;20039;-87
2022/02/05 15:32:58;;;;;;;1999.90;999.90;;;13.60;68.20;;;;;;4952427;28;20493;-88
2022/02/05 15:35:24;;;;;;;1999.90;999.90;;;13.60;68.20;;;;;;4942130;29;20039;-86
2022/02/05 15:37:51;;;;;;;1999.90;999.90;;;13.60;68.10;;;;;;4947574;28;20051;-86
2022/02/05 15:43:24;;;;;;;1999.90;999.90;;;13.70;68.00;;;;;;4947812;29;20024;-85
2022/02/05 15:45:50;;;;;;;1999.90;999.90;;;13.80;67.70;;;;;;4948864;28;20039;-84